createdAt,value
2017-11-18T00:00:49.667Z,11.70
2017-11-18T00:03:17.993Z,11.67
2017-11-18T00:05:46.252Z,11.57
2017-11-18T00:08:14.559Z,11.63
2017-11-18T00:10:43.624Z,10.70
2017-11-18T00:13:11.954Z,9.30
2017-11-18T00:15:40.217Z,11.07
2017-11-18T00:18:09.222Z,10.93
2017-11-18T00:20:37.471Z,11.00
2017-11-18T00:23:06.470Z,13.37
2017-11-18T00:25:35.522Z,10.83
2017-11-18T00:28:03.791Z,11.53
2017-11-18T00:30:32.087Z,12.63
2017-11-18T00:33:00.388Z,10.13
2017-11-18T00:35:29.231Z,10.63
2017-11-18T00:37:57.505Z,10.83
2017-11-18T00:40:25.743Z,11.37
2017-11-18T00:42:54.783Z,11.10
2017-11-18T00:45:23.038Z,10.67
2017-11-18T00:47:52.096Z,11.70
2017-11-18T00:50:20.406Z,9.37
2017-11-18T00:52:48.672Z,9.63
2017-11-18T00:55:17.697Z,8.40
2017-11-18T00:57:45.997Z,10.10
2017-11-18T01:00:15.140Z,11.80
2017-11-18T01:02:43.528Z,9.43
2017-11-18T01:05:12.543Z,10.67
2017-11-18T01:07:40.789Z,10.27
2017-11-18T01:10:10.191Z,9.67
2017-11-18T01:12:39.202Z,10.80
2017-11-18T01:15:08.228Z,10.60
2017-11-18T01:17:36.473Z,12.70
2017-11-18T01:20:04.769Z,10.90
2017-11-18T01:22:33.004Z,9.10
2017-11-18T01:25:01.301Z,9.80
2017-11-18T01:27:30.334Z,11.30
2017-11-18T01:29:58.602Z,10.23
2017-11-18T01:32:27.794Z,11.57
2017-11-18T01:34:56.069Z,10.00
2017-11-18T01:37:24.350Z,10.50
2017-11-18T01:39:52.648Z,11.30
2017-11-18T01:42:22.010Z,10.77
2017-11-18T01:44:51.033Z,9.90
2017-11-18T01:47:19.304Z,9.20
2017-11-18T01:49:49.111Z,9.43
2017-11-18T01:52:17.380Z,9.33
2017-11-18T01:54:45.655Z,10.50
2017-11-18T01:57:14.644Z,10.90
2017-11-18T01:59:42.927Z,10.43
2017-11-18T02:02:21.524Z,11.10
2017-11-18T02:04:50.765Z,10.17
2017-11-18T02:07:19.019Z,10.70
2017-11-18T02:09:48.018Z,10.07
2017-11-18T02:12:16.281Z,8.93
2017-11-18T02:14:45.315Z,10.43
2017-11-18T02:17:13.566Z,12.63
2017-11-18T02:19:41.847Z,9.90
2017-11-18T02:22:10.913Z,11.13
2017-11-18T02:24:39.946Z,11.63
2017-11-18T02:27:08.234Z,10.67
2017-11-18T02:29:36.521Z,10.30
2017-11-18T02:32:05.667Z,10.70
2017-11-18T02:34:34.758Z,9.80
2017-11-18T02:37:02.989Z,10.47
2017-11-18T02:39:31.286Z,10.90
2017-11-18T02:41:59.542Z,10.77
2017-11-18T02:44:27.813Z,11.33
2017-11-18T02:46:56.133Z,10.70
2017-11-18T02:49:24.393Z,9.17
2017-11-18T02:51:52.681Z,10.60
2017-11-18T02:54:20.982Z,10.93
2017-11-18T02:56:49.226Z,10.53
2017-11-18T02:59:17.512Z,10.50
2017-11-18T03:01:45.836Z,11.30
2017-11-18T03:04:14.842Z,10.93
2017-11-18T03:06:43.112Z,10.90
2017-11-18T03:09:12.145Z,10.73
2017-11-18T03:11:40.720Z,10.97
2017-11-18T03:14:09.013Z,12.47
2017-11-18T03:16:37.288Z,11.93
2017-11-18T03:19:05.570Z,10.93
2017-11-18T03:21:33.828Z,12.50
2017-11-18T03:24:02.162Z,9.87
2017-11-18T03:26:31.198Z,10.50
2017-11-18T03:28:59.476Z,10.70
2017-11-18T03:31:27.762Z,11.27
2017-11-18T03:33:56.018Z,9.90
2017-11-18T03:36:24.275Z,10.57
2017-11-18T03:38:52.637Z,11.00
2017-11-18T03:41:20.888Z,11.00
2017-11-18T03:43:49.144Z,10.93
2017-11-18T03:46:17.409Z,10.77
2017-11-18T03:48:45.659Z,12.07
2017-11-18T03:51:14.695Z,11.70
2017-11-18T03:53:42.935Z,11.90
2017-11-18T03:56:12.495Z,10.67
2017-11-18T03:58:41.495Z,10.80
2017-11-18T04:01:09.809Z,9.87
2017-11-18T04:03:38.959Z,10.73
2017-11-18T04:06:07.810Z,10.80
2017-11-18T04:08:36.064Z,10.30
2017-11-18T04:11:04.321Z,10.00
2017-11-18T04:13:32.720Z,9.70
2017-11-18T04:16:02.733Z,10.70
2017-11-18T04:18:31.786Z,11.30
2017-11-18T04:21:00.061Z,10.50
2017-11-18T04:23:28.694Z,10.70
2017-11-18T04:25:57.751Z,11.53
2017-11-18T04:28:26.051Z,10.70
2017-11-18T04:30:54.328Z,10.97
2017-11-18T04:33:22.570Z,11.77
2017-11-18T04:35:50.853Z,11.03
2017-11-18T04:38:19.817Z,10.97
2017-11-18T04:40:48.863Z,11.53
2017-11-18T04:43:17.141Z,11.93
2017-11-18T04:45:45.369Z,9.77
2017-11-18T04:48:13.693Z,11.90
2017-11-18T04:50:42.120Z,9.90
2017-11-18T04:53:10.885Z,9.83
2017-11-18T04:55:40.104Z,10.00
2017-11-18T04:58:08.387Z,9.17
2017-11-18T05:00:37.464Z,10.33
2017-11-18T05:03:07.521Z,10.50
2017-11-18T05:05:35.776Z,11.00
2017-11-18T05:08:04.823Z,10.60
2017-11-18T05:10:33.430Z,9.07
2017-11-18T05:13:01.694Z,10.00
2017-11-18T05:15:29.997Z,8.70
2017-11-18T05:17:58.236Z,10.80
2017-11-18T05:20:26.500Z,8.93
2017-11-18T05:22:54.948Z,10.13
2017-11-18T05:25:23.211Z,9.53
2017-11-18T05:27:52.436Z,8.13
2017-11-18T05:30:20.724Z,8.23
2017-11-18T05:32:48.995Z,10.23
2017-11-18T05:35:17.259Z,8.33
2017-11-18T05:37:46.338Z,8.70
2017-11-18T05:40:14.597Z,8.70
2017-11-18T05:42:42.839Z,8.90
2017-11-18T05:45:11.100Z,9.50
2017-11-18T05:47:39.376Z,8.80
2017-11-18T05:50:07.606Z,10.10
2017-11-18T05:52:36.596Z,8.43
2017-11-18T05:55:04.834Z,9.40
2017-11-18T05:57:33.094Z,10.47
2017-11-18T06:00:01.359Z,10.70
2017-11-18T06:02:29.687Z,9.40
2017-11-18T06:04:57.954Z,8.30
2017-11-18T06:07:26.177Z,9.77
2017-11-18T06:09:54.446Z,8.60
2017-11-18T06:12:22.702Z,8.87
2017-11-18T06:14:50.988Z,10.27
2017-11-18T06:17:19.287Z,15.20
2017-11-18T06:19:47.807Z,8.33
2017-11-18T06:22:16.523Z,10.47
2017-11-18T06:24:44.760Z,9.33
2017-11-18T06:27:13.907Z,9.07
2017-11-18T06:29:42.194Z,8.10
2017-11-18T06:32:11.217Z,10.43
2017-11-18T06:34:39.665Z,10.03
2017-11-18T06:37:07.891Z,10.13
2017-11-18T06:39:36.210Z,9.10
2017-11-18T06:42:04.440Z,9.43
2017-11-18T06:44:32.712Z,9.93
2017-11-18T06:47:02.067Z,8.70
2017-11-18T06:49:31.358Z,11.20
2017-11-18T06:51:59.619Z,10.53
2017-11-18T06:54:27.882Z,8.70
2017-11-18T06:56:56.884Z,9.50
2017-11-18T06:59:25.892Z,9.50
2017-11-18T07:01:54.127Z,9.10
2017-11-18T07:04:24.865Z,10.53
2017-11-18T07:06:53.136Z,8.50
2017-11-18T07:09:21.394Z,10.20
2017-11-18T07:11:50.451Z,9.70
2017-11-18T07:14:18.706Z,9.27
2017-11-18T07:16:47.734Z,9.73
2017-11-18T07:19:16.579Z,8.20
2017-11-18T07:21:44.898Z,9.20
2017-11-18T07:24:13.124Z,8.27
2017-11-18T07:26:41.505Z,9.23
2017-11-18T07:29:09.725Z,8.57
2017-11-18T07:31:37.977Z,8.63
2017-11-18T07:34:06.999Z,15.00
2017-11-18T07:36:35.269Z,9.60
2017-11-18T07:39:03.547Z,9.33
2017-11-18T07:41:32.659Z,7.80
2017-11-18T07:44:00.902Z,8.33
2017-11-18T07:46:29.946Z,9.93
2017-11-18T07:48:58.236Z,9.60
2017-11-18T07:51:26.486Z,9.00
2017-11-18T07:53:55.761Z,9.37
2017-11-18T07:56:25.048Z,7.63
2017-11-18T07:58:54.085Z,7.70
2017-11-18T08:01:22.329Z,7.80
2017-11-18T08:03:52.250Z,9.73
2017-11-18T08:06:22.215Z,8.40
2017-11-18T08:08:50.549Z,8.73
2017-11-18T08:11:19.457Z,8.20
2017-11-18T08:13:49.125Z,8.27
2017-11-18T08:16:17.360Z,7.60
2017-11-18T08:18:45.639Z,8.60
2017-11-18T08:21:13.929Z,8.70
2017-11-18T08:23:42.234Z,9.20
2017-11-18T08:26:10.509Z,6.97
2017-11-18T08:28:38.804Z,6.83
2017-11-18T08:31:07.037Z,9.10
2017-11-18T08:33:35.298Z,8.10
2017-11-18T08:36:15.348Z,7.70
2017-11-18T08:38:43.659Z,6.80
2017-11-18T08:41:11.953Z,8.13
2017-11-18T08:43:40.201Z,9.60
2017-11-18T08:46:08.501Z,7.90
2017-11-18T08:48:37.548Z,8.83
2017-11-18T08:51:06.860Z,10.00
2017-11-18T08:53:35.142Z,9.87
2017-11-18T08:56:03.966Z,8.17
2017-11-18T08:58:32.876Z,9.83
2017-11-18T09:01:01.187Z,9.60
2017-11-18T09:03:29.492Z,11.30
2017-11-18T09:05:57.758Z,18.27
2017-11-18T09:08:26.103Z,9.57
2017-11-18T09:10:55.109Z,9.27
2017-11-18T09:13:23.396Z,7.97
2017-11-18T09:15:52.042Z,9.40
2017-11-18T09:18:20.306Z,8.30
2017-11-18T09:20:49.062Z,8.30
2017-11-18T09:23:18.277Z,8.00
2017-11-18T09:25:46.536Z,6.80
2017-11-18T09:28:14.924Z,7.57
2017-11-18T09:30:44.009Z,8.13
2017-11-18T09:33:13.822Z,7.70
2017-11-18T09:35:44.230Z,7.67
2017-11-18T09:38:12.546Z,6.43
2017-11-18T09:40:40.841Z,8.63
2017-11-18T09:43:10.209Z,8.07
2017-11-18T09:45:38.489Z,6.80
2017-11-18T09:48:06.776Z,8.10
2017-11-18T09:50:35.035Z,7.50
2017-11-18T09:53:04.896Z,8.10
2017-11-18T09:55:35.225Z,6.57
2017-11-18T09:58:03.491Z,7.77
2017-11-18T10:00:32.721Z,8.00
2017-11-18T10:03:01.004Z,6.50
2017-11-18T10:05:30.095Z,6.93
2017-11-18T10:07:58.337Z,8.33
2017-11-18T10:10:26.632Z,8.63
2017-11-18T10:12:55.723Z,8.53
2017-11-18T10:15:24.021Z,6.37
2017-11-18T10:17:52.281Z,8.10
2017-11-18T10:20:21.335Z,8.50
2017-11-18T10:22:49.591Z,9.07
2017-11-18T10:25:20.377Z,9.10
2017-11-18T10:27:49.464Z,7.47
2017-11-18T10:30:17.762Z,8.63
2017-11-18T10:32:47.207Z,7.77
2017-11-18T10:35:17.172Z,8.00
2017-11-18T10:37:45.445Z,8.47
2017-11-18T10:40:13.757Z,7.70
2017-11-18T10:42:42.027Z,7.93
2017-11-18T10:45:10.440Z,6.87
2017-11-18T10:47:38.740Z,7.93
2017-11-18T10:50:07.014Z,8.60
2017-11-18T10:52:35.628Z,7.50
2017-11-18T10:55:05.160Z,7.77
2017-11-18T10:57:34.557Z,8.47
2017-11-18T11:00:03.763Z,9.10
2017-11-18T11:02:35.372Z,7.93
2017-11-18T11:05:17.119Z,8.50
2017-11-18T11:07:46.446Z,9.70
2017-11-18T11:10:14.837Z,9.00
2017-11-18T11:12:43.442Z,9.43
2017-11-18T11:15:11.764Z,9.67
2017-11-18T11:17:40.884Z,8.90
2017-11-18T11:20:11.081Z,10.20
2017-11-18T11:22:40.137Z,10.50
2017-11-18T11:25:08.404Z,9.43
2017-11-18T11:27:36.696Z,10.27
2017-11-18T11:30:04.992Z,9.43
2017-11-18T11:32:33.334Z,10.00
2017-11-18T11:35:01.592Z,9.40
2017-11-18T11:37:30.582Z,8.90
2017-11-18T11:39:59.075Z,10.07
2017-11-18T11:42:27.545Z,9.83
2017-11-18T11:44:56.652Z,12.10
2017-11-18T11:47:25.940Z,9.27
2017-11-18T11:49:55.120Z,10.23
2017-11-18T11:52:23.568Z,9.93
2017-11-18T11:54:51.846Z,11.67
2017-11-18T11:57:20.142Z,10.90
2017-11-18T11:59:50.161Z,11.63
2017-11-18T12:02:18.460Z,10.03
2017-11-18T12:04:46.762Z,10.20
2017-11-18T12:07:15.416Z,11.70
2017-11-18T12:09:44.473Z,9.57
2017-11-18T12:12:12.760Z,10.40
2017-11-18T12:14:41.079Z,10.97
2017-11-18T12:17:11.050Z,11.73
2017-11-18T12:19:39.379Z,12.80
2017-11-18T12:22:08.479Z,12.53
2017-11-18T12:24:38.056Z,17.03
2017-11-18T12:27:07.156Z,11.50
2017-11-18T12:29:35.543Z,10.90
2017-11-18T12:32:03.853Z,10.97
2017-11-18T12:34:32.149Z,10.10
2017-11-18T12:37:00.460Z,9.60
2017-11-18T12:39:29.422Z,13.60
2017-11-18T12:41:57.856Z,11.67
2017-11-18T12:44:26.144Z,8.83
2017-11-18T12:46:55.324Z,9.83
2017-11-18T12:49:23.746Z,11.03
2017-11-18T12:51:52.016Z,11.30
2017-11-18T12:54:20.272Z,9.90
2017-11-18T12:56:49.349Z,13.00
2017-11-18T12:59:17.662Z,10.27
2017-11-18T13:01:45.925Z,9.80
2017-11-18T13:04:14.705Z,9.87
2017-11-18T13:06:43.794Z,9.53
2017-11-18T13:09:12.090Z,9.00
2017-11-18T13:11:41.120Z,9.30
2017-11-18T13:14:09.433Z,10.13
2017-11-18T13:16:37.934Z,9.00
2017-11-18T13:19:07.160Z,9.40
2017-11-18T13:21:36.342Z,9.23
2017-11-18T13:24:06.101Z,8.27
2017-11-18T13:26:34.369Z,9.97
2017-11-18T13:29:03.727Z,10.30
2017-11-18T13:31:32.014Z,10.73
2017-11-18T13:34:01.092Z,8.40
2017-11-18T13:36:29.934Z,8.30
2017-11-18T13:38:58.570Z,8.40
2017-11-18T13:41:26.931Z,8.90
2017-11-18T13:43:55.336Z,8.50
2017-11-18T13:46:24.389Z,8.10
2017-11-18T13:48:52.633Z,8.87
2017-11-18T13:51:20.887Z,7.20
2017-11-18T13:53:49.205Z,8.67
2017-11-18T13:56:17.436Z,8.10
2017-11-18T13:58:48.012Z,8.57
2017-11-18T14:01:16.292Z,7.67
2017-11-18T14:03:45.571Z,7.97
2017-11-18T14:06:14.757Z,7.77
2017-11-18T14:08:43.198Z,6.93
2017-11-18T14:11:11.857Z,6.80
2017-11-18T14:13:41.617Z,6.37
2017-11-18T14:16:09.904Z,8.67
2017-11-18T14:18:38.223Z,8.63
2017-11-18T14:21:06.524Z,7.47
2017-11-18T14:23:35.508Z,8.00
2017-11-18T14:26:04.122Z,8.37
2017-11-18T14:28:32.384Z,8.73
2017-11-18T14:31:00.707Z,9.47
2017-11-18T14:33:29.805Z,8.60
2017-11-18T14:35:58.819Z,9.17
2017-11-18T14:38:27.220Z,8.20
2017-11-18T14:40:55.502Z,8.20
2017-11-18T14:43:23.808Z,7.43
2017-11-18T14:45:53.259Z,9.03
2017-11-18T14:48:21.806Z,6.10
2017-11-18T14:50:50.845Z,7.30
2017-11-18T14:53:19.211Z,7.00
2017-11-18T14:55:48.277Z,7.13
2017-11-18T14:58:16.552Z,8.03
2017-11-18T15:00:44.874Z,6.10
2017-11-18T15:03:14.182Z,6.40
2017-11-18T15:05:42.467Z,8.10
2017-11-18T15:08:10.771Z,7.07
2017-11-18T15:10:39.723Z,7.23
2017-11-18T15:13:08.939Z,8.63
2017-11-18T15:15:38.284Z,8.43
2017-11-18T15:21:19.124Z,8.63
2017-11-18T15:24:02.713Z,8.20
2017-11-18T15:26:47.352Z,7.90
2017-11-18T15:29:22.202Z,7.73
2017-11-18T15:31:56.526Z,8.70
2017-11-18T15:34:36.991Z,8.80
2017-11-18T15:40:06.880Z,9.27
2017-11-18T15:42:35.278Z,8.13
2017-11-18T15:45:04.103Z,8.17
2017-11-18T15:47:38.867Z,8.97
2017-11-18T15:53:14.784Z,9.33
2017-11-18T15:55:46.043Z,8.10
2017-11-18T15:58:26.746Z,9.30
2017-11-18T16:01:11.809Z,9.30
2017-11-18T16:03:41.636Z,9.07
2017-11-18T16:06:11.399Z,9.87
2017-11-18T16:08:40.937Z,11.40
2017-11-18T16:11:09.523Z,10.23
2017-11-18T16:13:39.025Z,9.70
2017-11-18T16:16:08.092Z,10.40
2017-11-18T16:18:36.414Z,10.73
2017-11-18T16:21:04.751Z,10.90
2017-11-18T16:23:34.954Z,11.60
2017-11-18T16:26:03.293Z,9.80
2017-11-18T16:28:32.088Z,10.47
2017-11-18T16:31:01.186Z,6.93
2017-11-18T16:33:30.315Z,4.30
2017-11-18T16:35:58.757Z,3.57
2017-11-18T16:38:27.118Z,5.60
2017-11-18T16:40:55.393Z,4.13
2017-11-18T16:43:23.732Z,4.80
2017-11-18T16:45:52.032Z,4.83
2017-11-18T16:48:20.275Z,4.10
2017-11-18T16:50:48.646Z,3.73
2017-11-18T16:53:16.946Z,4.43
2017-11-18T16:55:45.289Z,4.27
2017-11-18T16:58:13.582Z,4.30
2017-11-18T17:00:41.893Z,3.50
2017-11-18T17:03:11.257Z,3.60
2017-11-18T17:05:39.613Z,4.10
2017-11-18T17:08:08.002Z,3.60
2017-11-18T17:10:37.030Z,3.73
2017-11-18T17:13:06.144Z,4.93
2017-11-18T17:15:34.528Z,3.30
2017-11-18T17:18:02.852Z,3.83
2017-11-18T17:20:32.120Z,4.50
2017-11-18T17:23:00.440Z,4.87
2017-11-18T17:25:29.517Z,4.40
2017-11-18T17:27:57.819Z,4.33
2017-11-18T17:30:27.205Z,3.83
2017-11-18T17:32:56.244Z,3.67
2017-11-18T17:35:24.578Z,4.10
2017-11-18T17:37:53.623Z,4.10
2017-11-18T17:40:23.241Z,5.57
2017-11-18T17:42:51.586Z,3.57
2017-11-18T17:45:19.947Z,3.00
2017-11-18T17:47:49.084Z,3.40
2017-11-18T17:50:17.680Z,3.77
2017-11-18T17:52:47.355Z,4.70
2017-11-18T17:55:15.675Z,4.80
2017-11-18T17:57:46.241Z,4.20
2017-11-18T18:00:17.339Z,3.87
2017-11-18T18:02:46.653Z,5.40
2017-11-18T18:05:16.133Z,3.30
2017-11-18T18:07:45.293Z,3.50
2017-11-18T18:10:14.711Z,2.80
2017-11-18T18:12:44.307Z,4.93
2017-11-18T18:15:14.076Z,4.00
2017-11-18T18:17:43.200Z,10.17
2017-11-18T18:20:11.484Z,5.00
2017-11-18T18:22:45.143Z,6.23
2017-11-18T18:25:13.956Z,6.57
2017-11-18T18:27:42.402Z,6.67
2017-11-18T18:30:12.697Z,5.53
2017-11-18T18:32:42.873Z,5.97
2017-11-18T18:35:12.184Z,7.07
2017-11-18T18:37:41.552Z,7.00
2017-11-18T18:40:10.982Z,4.90
2017-11-18T18:42:40.432Z,4.93
2017-11-18T18:45:12.301Z,5.40
2017-11-18T18:47:41.396Z,4.50
2017-11-18T18:50:11.108Z,5.10
2017-11-18T18:52:40.360Z,5.60
2017-11-18T18:55:12.771Z,4.27
2017-11-18T18:57:41.809Z,4.77
2017-11-18T19:00:11.348Z,4.90
2017-11-18T19:02:40.149Z,5.60
2017-11-18T19:05:08.526Z,4.73
2017-11-18T19:07:39.172Z,4.70
2017-11-18T19:10:09.511Z,5.67
2017-11-18T19:12:39.445Z,4.83
2017-11-18T19:15:07.801Z,5.40
2017-11-18T19:17:36.181Z,5.83
2017-11-18T19:20:05.430Z,6.10
2017-11-18T19:22:34.663Z,4.03
2017-11-18T19:25:03.062Z,4.50
2017-11-18T19:27:32.161Z,5.60
2017-11-18T19:30:00.482Z,5.67
2017-11-18T19:32:28.782Z,4.60
2017-11-18T19:34:57.142Z,3.43
2017-11-18T19:37:25.441Z,2.47
2017-11-18T19:39:55.203Z,3.00
2017-11-18T19:42:24.342Z,5.50
2017-11-18T19:44:52.708Z,4.33
2017-11-18T19:47:21.041Z,4.60
2017-11-18T19:49:50.203Z,7.83
2017-11-18T19:52:18.666Z,4.80
2017-11-18T19:54:47.092Z,4.77
2017-11-18T19:57:15.748Z,4.90
2017-11-18T19:59:44.868Z,4.53
2017-11-18T20:02:14.043Z,4.90
2017-11-18T20:04:42.315Z,5.57
2017-11-18T20:07:10.649Z,5.20
2017-11-18T20:09:38.925Z,5.17
2017-11-18T20:12:07.265Z,5.50
2017-11-18T20:14:35.618Z,5.60
2017-11-18T20:17:03.942Z,5.10
2017-11-18T20:19:32.498Z,5.00
2017-11-18T20:22:01.768Z,4.90
2017-11-18T20:24:32.152Z,5.27
2017-11-18T20:27:00.523Z,5.67
2017-11-18T20:29:28.835Z,6.27
2017-11-18T20:31:58.705Z,5.47
2017-11-18T20:34:27.014Z,6.10
2017-11-18T20:36:55.973Z,7.20
2017-11-18T20:39:24.246Z,10.57
2017-11-18T20:41:52.933Z,6.73
2017-11-18T20:44:21.225Z,6.23
2017-11-18T20:46:49.717Z,6.00
2017-11-18T20:49:17.982Z,5.60
2017-11-18T20:51:46.475Z,6.73
2017-11-18T20:54:14.783Z,7.63
2017-11-18T20:56:43.057Z,8.10
2017-11-18T20:59:11.774Z,10.87
2017-11-18T21:01:40.982Z,10.23
2017-11-18T21:04:09.963Z,8.50
2017-11-18T21:06:38.246Z,6.73
2017-11-18T21:09:09.056Z,6.63
2017-11-18T21:11:38.163Z,6.77
2017-11-18T21:14:06.483Z,7.63
2017-11-18T21:16:36.022Z,9.67
2017-11-18T21:19:04.280Z,9.50
2017-11-18T21:21:32.538Z,10.40
2017-11-18T21:24:01.056Z,7.77
2017-11-18T21:26:29.642Z,6.47
2017-11-18T21:28:58.264Z,7.53
2017-11-18T21:31:26.777Z,7.70
2017-11-18T21:33:55.567Z,7.60
2017-11-18T21:36:24.279Z,7.80
2017-11-18T21:38:52.588Z,9.07
2017-11-18T21:41:20.933Z,8.83
2017-11-18T21:43:49.256Z,6.93
2017-11-18T21:46:18.324Z,8.17
2017-11-18T21:48:48.441Z,8.90
2017-11-18T21:51:17.478Z,10.13
2017-11-18T21:53:46.638Z,7.00
2017-11-18T21:56:15.686Z,6.23
2017-11-18T21:58:44.123Z,7.67
2017-11-18T22:01:13.308Z,8.50
2017-11-18T22:03:42.606Z,7.17
2017-11-18T22:06:10.857Z,9.80
2017-11-18T22:08:39.118Z,6.87
2017-11-18T22:11:07.415Z,7.50
2017-11-18T22:13:35.719Z,7.90
2017-11-18T22:16:03.991Z,7.70
2017-11-18T22:18:32.309Z,7.23
2017-11-18T22:21:01.357Z,7.27
2017-11-18T22:23:29.850Z,8.40
2017-11-18T22:25:58.173Z,7.27
2017-11-18T22:28:27.213Z,6.10
2017-11-18T22:30:56.326Z,6.47
2017-11-18T22:33:24.547Z,6.30
2017-11-18T22:35:52.839Z,6.97
2017-11-18T22:38:21.096Z,7.30
2017-11-18T22:40:49.377Z,9.07
2017-11-18T22:43:17.636Z,9.23
2017-11-18T22:45:46.634Z,8.90
2017-11-18T22:48:14.911Z,15.30
2017-11-18T22:50:43.213Z,12.73
2017-11-18T22:53:11.560Z,12.43
2017-11-18T22:55:39.867Z,13.03
2017-11-18T22:58:08.209Z,9.97
2017-11-18T23:00:41.128Z,11.70
2017-11-18T23:03:09.399Z,11.77
2017-11-18T23:05:38.508Z,15.90
2017-11-18T23:08:06.822Z,14.40
2017-11-18T23:10:45.286Z,17.77
2017-11-18T23:13:14.342Z,24.80
2017-11-18T23:15:42.617Z,20.40
2017-11-18T23:18:10.909Z,16.80
2017-11-18T23:20:39.185Z,16.77
2017-11-18T23:23:08.227Z,10.70
2017-11-18T23:25:36.500Z,11.27
2017-11-18T23:28:04.776Z,11.33
2017-11-18T23:30:33.048Z,8.30
2017-11-18T23:33:01.320Z,9.03
2017-11-18T23:35:31.099Z,7.13
2017-11-18T23:37:59.347Z,5.77
2017-11-18T23:40:27.604Z,6.10
2017-11-18T23:42:57.042Z,6.37
2017-11-18T23:45:25.258Z,5.57
2017-11-18T23:47:53.581Z,5.10
2017-11-18T23:50:21.838Z,4.57
2017-11-18T23:52:50.402Z,4.43
2017-11-18T23:55:18.678Z,5.60
2017-11-18T23:57:46.944Z,4.37
